createdAt,value
2018-04-27T00:00:11.389Z,10.00
2018-04-27T00:01:11.413Z,10.60
2018-04-27T00:02:11.421Z,9.80
2018-04-27T00:03:11.442Z,9.70
2018-04-27T00:04:11.448Z,10.30
2018-04-27T00:05:11.531Z,10.00
2018-04-27T00:06:11.507Z,9.10
2018-04-27T00:07:11.499Z,10.40
2018-04-27T00:08:11.620Z,10.00
2018-04-27T00:09:11.537Z,10.20
2018-04-27T00:10:11.545Z,10.20
2018-04-27T00:11:11.583Z,10.30
2018-04-27T00:12:11.651Z,10.40
2018-04-27T00:13:11.611Z,10.50
2018-04-27T00:14:11.656Z,10.80
2018-04-27T00:15:11.631Z,11.70
2018-04-27T00:16:11.724Z,10.50
2018-04-27T00:17:11.800Z,10.40
2018-04-27T00:18:11.675Z,10.80
2018-04-27T00:19:11.719Z,10.80
2018-04-27T00:20:11.705Z,11.90
2018-04-27T00:21:11.857Z,10.40
2018-04-27T00:22:11.837Z,10.60
2018-04-27T00:23:11.754Z,12.00
2018-04-27T00:24:11.787Z,11.60
2018-04-27T00:25:11.789Z,11.90
2018-04-27T00:26:11.825Z,11.20
2018-04-27T00:27:11.825Z,11.90
2018-04-27T00:28:11.851Z,12.10
2018-04-27T00:29:11.852Z,11.30
2018-04-27T00:30:11.871Z,11.60
2018-04-27T00:31:11.903Z,11.00
2018-04-27T00:32:11.922Z,11.70
2018-04-27T00:33:11.977Z,11.00
2018-04-27T00:34:11.937Z,12.30
2018-04-27T00:35:11.957Z,11.10
2018-04-27T00:36:11.981Z,11.40
2018-04-27T00:37:12.073Z,10.60
2018-04-27T00:38:12.054Z,10.90
2018-04-27T00:39:12.017Z,10.70
2018-04-27T00:40:12.026Z,9.80
2018-04-27T00:41:12.042Z,11.20
2018-04-27T00:42:12.061Z,10.10
2018-04-27T00:43:12.088Z,10.40
2018-04-27T00:44:12.093Z,10.40
2018-04-27T00:45:12.104Z,10.00
2018-04-27T00:46:12.135Z,10.50
2018-04-27T00:47:12.135Z,9.90
2018-04-27T00:48:12.163Z,9.40
2018-04-27T00:49:12.267Z,9.80
2018-04-27T00:50:12.183Z,9.50
2018-04-27T00:51:12.220Z,9.80
2018-04-27T00:52:12.274Z,9.80
2018-04-27T00:53:12.290Z,9.80
2018-04-27T00:54:12.246Z,9.90
2018-04-27T00:55:12.263Z,9.90
2018-04-27T00:56:12.279Z,9.80
2018-04-27T00:57:12.342Z,9.60
2018-04-27T00:58:12.309Z,10.50
2018-04-27T00:59:12.320Z,10.20
2018-04-27T01:00:12.394Z,9.80
2018-04-27T01:01:12.447Z,9.70
2018-04-27T01:02:12.374Z,9.00
2018-04-27T01:03:12.476Z,9.80
2018-04-27T01:04:12.413Z,9.30
2018-04-27T01:05:12.432Z,9.60
2018-04-27T01:06:12.444Z,9.30
2018-04-27T01:07:12.489Z,9.00
2018-04-27T01:08:12.478Z,9.20
2018-04-27T01:09:12.481Z,9.40
2018-04-27T01:10:12.570Z,9.30
2018-04-27T01:11:12.518Z,10.40
2018-04-27T01:12:12.650Z,9.90
2018-04-27T01:13:12.546Z,9.90
2018-04-27T01:14:12.572Z,9.60
2018-04-27T01:15:12.605Z,10.50
2018-04-27T01:16:12.601Z,10.40
2018-04-27T01:17:12.613Z,9.70
2018-04-27T01:18:12.636Z,9.50
2018-04-27T01:19:12.645Z,9.90
2018-04-27T01:20:12.654Z,9.30
2018-04-27T01:21:12.671Z,9.50
2018-04-27T01:22:12.707Z,8.90
2018-04-27T01:23:12.721Z,9.90
2018-04-27T01:24:12.729Z,9.30
2018-04-27T01:25:12.733Z,9.40
2018-04-27T01:26:12.750Z,9.60
2018-04-27T01:27:12.760Z,9.40
2018-04-27T01:28:12.790Z,9.10
2018-04-27T01:29:12.837Z,10.00
2018-04-27T01:30:12.815Z,9.00
2018-04-27T01:31:12.827Z,9.60
2018-04-27T01:32:12.847Z,10.00
2018-04-27T01:33:12.869Z,9.20
2018-04-27T01:34:12.878Z,10.20
2018-04-27T01:35:12.962Z,9.40
2018-04-27T01:36:12.919Z,9.30
2018-04-27T01:37:12.938Z,9.70
2018-04-27T01:38:12.937Z,9.40
2018-04-27T01:39:12.955Z,10.30
2018-04-27T01:40:12.976Z,9.00
2018-04-27T01:41:12.991Z,9.40
2018-04-27T01:42:13.091Z,9.20
2018-04-27T01:43:13.103Z,9.00
2018-04-27T01:44:13.094Z,9.70
2018-04-27T01:45:13.056Z,8.90
2018-04-27T01:46:13.059Z,9.60
2018-04-27T01:47:13.076Z,9.70
2018-04-27T01:48:13.103Z,9.00
2018-04-27T01:49:13.119Z,9.00
2018-04-27T01:50:13.120Z,8.70
2018-04-27T01:51:13.138Z,9.00
2018-04-27T01:52:13.164Z,8.90
2018-04-27T01:53:13.237Z,9.30
2018-04-27T01:54:13.220Z,8.80
2018-04-27T01:55:13.209Z,8.70
2018-04-27T01:56:13.277Z,9.10
2018-04-27T01:57:13.254Z,9.50
2018-04-27T01:58:13.285Z,8.70
2018-04-27T01:59:13.272Z,8.60
2018-04-27T02:00:13.283Z,9.60
2018-04-27T02:01:13.293Z,9.30
2018-04-27T02:02:13.326Z,9.50
2018-04-27T02:03:13.322Z,9.40
2018-04-27T02:04:13.431Z,9.30
2018-04-27T02:05:13.362Z,8.20
2018-04-27T02:06:13.380Z,8.70
2018-04-27T02:07:13.395Z,9.10
2018-04-27T02:08:13.404Z,8.50
2018-04-27T02:09:13.422Z,8.90
2018-04-27T02:10:13.433Z,8.60
2018-04-27T02:11:13.477Z,9.10
2018-04-27T02:12:13.490Z,8.70
2018-04-27T02:13:13.514Z,8.50
2018-04-27T02:14:13.496Z,8.60
2018-04-27T02:15:13.533Z,8.30
2018-04-27T02:16:13.528Z,8.10
2018-04-27T02:17:13.567Z,8.50
2018-04-27T02:18:13.622Z,9.10
2018-04-27T02:19:13.577Z,9.40
2018-04-27T02:20:13.591Z,9.60
2018-04-27T02:21:13.627Z,9.00
2018-04-27T02:22:13.626Z,8.80
2018-04-27T02:23:13.722Z,8.50
2018-04-27T02:24:13.651Z,8.20
2018-04-27T02:25:13.814Z,8.80
2018-04-27T02:26:13.694Z,8.20
2018-04-27T02:27:13.701Z,8.30
2018-04-27T02:28:13.746Z,8.40
2018-04-27T02:29:13.843Z,8.50
2018-04-27T02:30:13.752Z,8.40
2018-04-27T02:31:13.755Z,7.80
2018-04-27T02:32:13.775Z,7.50
2018-04-27T02:33:13.800Z,7.60
2018-04-27T02:34:13.846Z,8.40
2018-04-27T02:35:13.816Z,9.00
2018-04-27T02:36:13.841Z,8.50
2018-04-27T02:37:13.868Z,8.20
2018-04-27T02:38:13.875Z,8.80
2018-04-27T02:39:13.891Z,7.80
2018-04-27T02:40:13.897Z,8.70
2018-04-27T02:41:13.923Z,8.80
2018-04-27T02:42:13.928Z,9.40
2018-04-27T02:43:13.949Z,8.80
2018-04-27T02:44:13.963Z,8.40
2018-04-27T02:45:14.020Z,8.40
2018-04-27T02:46:13.988Z,8.90
2018-04-27T02:47:14.069Z,8.70
2018-04-27T02:48:14.070Z,8.00
2018-04-27T02:49:14.073Z,9.40
2018-04-27T02:50:14.069Z,8.10
2018-04-27T02:51:14.094Z,8.20
2018-04-27T02:52:14.086Z,8.60
2018-04-27T02:53:14.102Z,8.20
2018-04-27T02:54:14.153Z,9.60
2018-04-27T02:55:14.126Z,9.60
2018-04-27T02:56:14.145Z,9.70
2018-04-27T02:57:14.164Z,9.30
2018-04-27T02:58:14.177Z,9.10
2018-04-27T02:59:14.197Z,10.10
2018-04-27T03:00:14.217Z,9.50
2018-04-27T03:01:14.264Z,10.50
2018-04-27T03:02:14.263Z,10.10
2018-04-27T03:03:14.259Z,9.90
2018-04-27T03:04:14.273Z,9.10
2018-04-27T03:05:14.316Z,10.10
2018-04-27T03:06:14.308Z,9.60
2018-04-27T03:07:14.307Z,8.80
2018-04-27T03:08:14.389Z,10.20
2018-04-27T03:09:14.344Z,9.30
2018-04-27T03:10:14.357Z,9.70
2018-04-27T03:11:14.376Z,9.40
2018-04-27T03:12:14.397Z,9.00
2018-04-27T03:13:14.400Z,8.40
2018-04-27T03:14:14.416Z,8.80
2018-04-27T03:15:14.431Z,9.60
2018-04-27T03:16:14.589Z,9.10
2018-04-27T03:17:14.470Z,9.60
2018-04-27T03:18:14.515Z,9.10
2018-04-27T03:19:14.579Z,8.90
2018-04-27T03:20:14.575Z,9.70
2018-04-27T03:21:14.580Z,9.80
2018-04-27T03:22:14.540Z,10.30
2018-04-27T03:23:14.687Z,9.80
2018-04-27T03:24:14.573Z,10.50
2018-04-27T03:25:14.590Z,11.10
2018-04-27T03:26:14.619Z,11.00
2018-04-27T03:27:14.619Z,10.40
2018-04-27T03:28:14.637Z,10.90
2018-04-27T03:29:14.653Z,9.90
2018-04-27T03:30:14.666Z,10.90
2018-04-27T03:31:14.752Z,11.10
2018-04-27T03:32:14.689Z,11.60
2018-04-27T03:33:14.730Z,11.00
2018-04-27T03:34:14.776Z,10.90
2018-04-27T03:35:14.734Z,10.00
2018-04-27T03:36:14.753Z,10.20
2018-04-27T03:37:14.832Z,10.30
2018-04-27T03:38:14.787Z,10.30
2018-04-27T03:39:14.797Z,10.20
2018-04-27T03:40:14.910Z,10.90
2018-04-27T03:41:14.870Z,11.00
2018-04-27T03:42:14.845Z,10.20
2018-04-27T03:43:14.860Z,9.40
2018-04-27T03:44:14.883Z,9.10
2018-04-27T03:45:14.885Z,9.40
2018-04-27T03:46:14.921Z,9.60
2018-04-27T03:47:14.927Z,8.60
2018-04-27T03:48:14.940Z,9.30
2018-04-27T03:49:14.943Z,8.80
2018-04-27T03:50:14.959Z,9.40
2018-04-27T03:51:15.008Z,8.70
2018-04-27T03:52:15.005Z,8.50
2018-04-27T03:53:15.039Z,9.40
2018-04-27T03:54:15.030Z,9.60
2018-04-27T03:55:15.054Z,9.30
2018-04-27T03:56:15.058Z,8.90
2018-04-27T03:57:15.084Z,9.00
2018-04-27T03:58:15.083Z,9.20
2018-04-27T03:59:15.122Z,9.00
2018-04-27T04:00:15.132Z,9.50
2018-04-27T04:01:15.171Z,9.60
2018-04-27T04:02:15.152Z,10.00
2018-04-27T04:03:15.173Z,9.30
2018-04-27T04:04:15.174Z,9.10
2018-04-27T04:05:15.232Z,9.20
2018-04-27T04:06:15.207Z,8.90
2018-04-27T04:07:15.230Z,8.70
2018-04-27T04:08:15.256Z,9.00
2018-04-27T04:09:15.349Z,8.90
2018-04-27T04:10:15.272Z,9.70
2018-04-27T04:11:15.295Z,9.50
2018-04-27T04:12:15.319Z,9.90
2018-04-27T04:13:15.340Z,10.00
2018-04-27T04:14:15.376Z,10.10
2018-04-27T04:15:15.344Z,9.10
2018-04-27T04:16:15.414Z,9.50
2018-04-27T04:17:15.380Z,8.90
2018-04-27T04:18:15.400Z,9.60
2018-04-27T04:19:15.497Z,9.20
2018-04-27T04:20:15.422Z,9.10
2018-04-27T04:21:15.446Z,9.80
2018-04-27T04:22:15.460Z,9.30
2018-04-27T04:23:15.479Z,9.70
2018-04-27T04:24:15.515Z,9.20
2018-04-27T04:25:15.525Z,9.40
2018-04-27T04:26:15.574Z,9.90
2018-04-27T04:27:15.548Z,9.90
2018-04-27T04:28:15.590Z,10.30
2018-04-27T04:29:15.580Z,10.00
2018-04-27T04:30:15.616Z,10.30
2018-04-27T04:31:15.593Z,10.20
2018-04-27T04:32:15.624Z,9.80
2018-04-27T04:33:15.661Z,9.40
2018-04-27T04:34:15.668Z,9.90
2018-04-27T04:35:15.657Z,9.80
2018-04-27T04:36:15.677Z,9.60
2018-04-27T04:37:15.703Z,10.00
2018-04-27T04:38:15.718Z,10.30
2018-04-27T04:39:15.760Z,10.10
2018-04-27T04:40:15.735Z,10.50
2018-04-27T04:41:15.770Z,11.00
2018-04-27T04:42:15.785Z,11.50
2018-04-27T04:43:15.843Z,11.10
2018-04-27T04:44:15.814Z,11.90
2018-04-27T04:45:15.812Z,12.00
2018-04-27T04:46:15.837Z,13.50
2018-04-27T04:47:15.857Z,16.00
2018-04-27T04:48:15.860Z,11.90
2018-04-27T04:49:15.875Z,11.70
2018-04-27T04:50:15.907Z,10.90
2018-04-27T04:51:15.908Z,11.40
2018-04-27T04:52:15.923Z,10.90
2018-04-27T04:53:15.990Z,10.90
2018-04-27T04:54:15.989Z,10.60
2018-04-27T04:55:16.076Z,10.30
2018-04-27T04:56:15.997Z,10.40
2018-04-27T04:57:16.004Z,11.00
2018-04-27T04:58:16.092Z,11.00
2018-04-27T04:59:16.039Z,11.10
2018-04-27T05:00:16.053Z,11.40
2018-04-27T05:01:16.067Z,11.30
2018-04-27T05:02:16.088Z,10.70
2018-04-27T05:03:16.099Z,11.40
2018-04-27T05:04:16.114Z,10.50
2018-04-27T05:05:16.127Z,12.40
2018-04-27T05:06:16.370Z,12.20
2018-04-27T05:07:16.215Z,13.00
2018-04-27T05:08:16.182Z,13.00
2018-04-27T05:09:16.219Z,12.40
2018-04-27T05:10:16.296Z,12.20
2018-04-27T05:11:16.230Z,11.70
2018-04-27T05:12:16.251Z,12.30
2018-04-27T05:13:16.272Z,11.90
2018-04-27T05:14:16.385Z,10.90
2018-04-27T05:15:16.322Z,11.00
2018-04-27T05:16:16.313Z,9.30
2018-04-27T05:17:16.410Z,9.20
2018-04-27T05:18:16.507Z,9.90
2018-04-27T05:19:16.433Z,8.60
2018-04-27T05:20:16.454Z,9.20
2018-04-27T05:21:16.459Z,8.30
2018-04-27T05:22:16.434Z,8.00
2018-04-27T05:23:16.472Z,8.40
2018-04-27T05:24:16.575Z,8.00
2018-04-27T05:25:16.476Z,8.20
2018-04-27T05:26:16.578Z,8.10
2018-04-27T05:27:16.520Z,7.70
2018-04-27T05:28:16.614Z,8.20
2018-04-27T05:29:16.584Z,8.40
2018-04-27T05:30:16.575Z,7.60
2018-04-27T05:31:16.589Z,8.20
2018-04-27T05:32:16.619Z,8.30
2018-04-27T05:33:16.761Z,7.90
2018-04-27T05:34:16.649Z,8.40
2018-04-27T05:35:16.663Z,8.50
2018-04-27T05:36:16.855Z,8.00
2018-04-27T05:37:16.811Z,8.60
2018-04-27T05:38:16.753Z,8.10
2018-04-27T05:39:16.750Z,7.70
2018-04-27T05:40:16.915Z,7.90
2018-04-27T05:41:16.789Z,7.90
2018-04-27T05:42:16.861Z,7.20
2018-04-27T05:43:16.831Z,6.60
2018-04-27T05:44:16.932Z,6.90
2018-04-27T05:45:17.052Z,7.20
2018-04-27T05:46:16.922Z,6.70
2018-04-27T05:47:16.920Z,7.00
2018-04-27T05:48:17.090Z,7.40
2018-04-27T05:49:16.980Z,7.30
2018-04-27T05:50:16.980Z,7.00
2018-04-27T05:51:17.013Z,6.70
2018-04-27T05:52:17.022Z,6.30
2018-04-27T05:53:17.046Z,6.50
2018-04-27T05:54:17.077Z,6.10
2018-04-27T05:55:17.169Z,5.70
2018-04-27T05:56:17.146Z,5.70
2018-04-27T05:57:17.144Z,5.50
2018-04-27T05:58:17.176Z,5.40
2018-04-27T05:59:17.199Z,5.20
2018-04-27T06:00:17.255Z,5.00
2018-04-27T06:01:17.240Z,4.50
2018-04-27T06:02:17.320Z,5.00
2018-04-27T06:03:17.292Z,5.70
2018-04-27T06:04:17.315Z,5.20
2018-04-27T06:05:17.434Z,4.90
2018-04-27T06:06:17.358Z,5.00
2018-04-27T06:07:17.383Z,5.10
2018-04-27T06:08:17.412Z,4.50
2018-04-27T06:09:17.436Z,4.80
2018-04-27T06:10:17.576Z,4.90
2018-04-27T06:11:17.482Z,5.20
2018-04-27T06:12:17.505Z,4.80
2018-04-27T06:13:17.529Z,4.30
2018-04-27T06:14:17.557Z,4.70
2018-04-27T06:15:17.621Z,4.80
2018-04-27T06:16:17.603Z,4.60
2018-04-27T06:17:17.665Z,4.70
2018-04-27T06:18:17.691Z,4.40
2018-04-27T06:19:17.747Z,4.50
2018-04-27T06:20:17.712Z,4.80
2018-04-27T06:21:17.786Z,4.90
2018-04-27T06:22:17.772Z,4.40
2018-04-27T06:23:17.830Z,4.70
2018-04-27T06:24:17.844Z,4.50
2018-04-27T06:25:17.831Z,5.10
2018-04-27T06:26:17.996Z,4.90
2018-04-27T06:27:17.905Z,4.40
2018-04-27T06:28:17.953Z,4.50
2018-04-27T06:29:17.949Z,4.40
2018-04-27T06:30:17.952Z,4.30
2018-04-27T06:31:18.060Z,4.50
2018-04-27T06:32:18.035Z,4.00
2018-04-27T06:33:18.037Z,4.20
2018-04-27T06:34:18.115Z,3.90
2018-04-27T06:35:18.108Z,3.90
2018-04-27T06:36:18.131Z,3.50
2018-04-27T06:37:18.239Z,3.50
2018-04-27T06:38:18.168Z,4.10
2018-04-27T06:39:18.191Z,3.70
2018-04-27T06:40:18.404Z,3.70
2018-04-27T06:41:18.281Z,3.40
2018-04-27T06:42:18.266Z,3.20
2018-04-27T06:43:18.288Z,3.30
2018-04-27T06:44:18.290Z,3.30
2018-04-27T06:45:18.316Z,3.30
2018-04-27T06:46:18.357Z,3.20
2018-04-27T06:47:18.371Z,3.50
2018-04-27T06:48:18.405Z,3.00
2018-04-27T06:49:18.431Z,3.30
2018-04-27T06:50:18.468Z,3.40
2018-04-27T06:51:18.488Z,3.50
2018-04-27T06:52:18.574Z,3.50
2018-04-27T06:53:18.559Z,3.00
2018-04-27T06:54:18.630Z,3.70
2018-04-27T06:55:18.712Z,3.30
2018-04-27T06:56:18.683Z,3.30
2018-04-27T06:57:18.652Z,3.10
2018-04-27T06:58:18.682Z,3.60
2018-04-27T06:59:18.802Z,3.40
2018-04-27T07:00:18.737Z,3.50
2018-04-27T07:01:18.767Z,3.70
2018-04-27T07:02:18.787Z,3.50
2018-04-27T07:03:18.803Z,3.30
2018-04-27T07:04:18.843Z,3.70
2018-04-27T07:05:18.946Z,3.30
2018-04-27T07:06:18.996Z,3.40
2018-04-27T07:07:18.920Z,3.40
2018-04-27T07:08:18.941Z,3.60
2018-04-27T07:09:18.966Z,4.00
2018-04-27T07:10:18.989Z,3.80
2018-04-27T07:11:19.016Z,3.60
2018-04-27T07:12:19.138Z,3.50
2018-04-27T07:13:19.067Z,3.40
2018-04-27T07:14:19.217Z,3.40
2018-04-27T07:15:19.111Z,3.60
2018-04-27T07:16:19.241Z,3.50
2018-04-27T07:17:19.163Z,3.30
2018-04-27T07:18:19.205Z,3.40
2018-04-27T07:19:19.338Z,3.30
2018-04-27T07:20:19.271Z,3.80
2018-04-27T07:21:19.535Z,3.30
2018-04-27T07:22:19.393Z,3.40
2018-04-27T07:23:19.345Z,3.00
2018-04-27T07:24:19.367Z,3.20
2018-04-27T07:25:19.406Z,3.40
2018-04-27T07:26:19.544Z,3.60
2018-04-27T07:27:19.440Z,3.40
2018-04-27T07:28:19.477Z,3.60
2018-04-27T07:29:19.520Z,3.60
2018-04-27T07:30:19.536Z,3.40
2018-04-27T07:31:19.668Z,3.50
2018-04-27T07:32:19.584Z,3.60
2018-04-27T07:33:19.608Z,3.60
2018-04-27T07:34:19.672Z,3.40
2018-04-27T07:35:19.687Z,3.70
2018-04-27T07:36:19.682Z,3.40
2018-04-27T07:37:19.820Z,3.90
2018-04-27T07:38:19.739Z,4.00
2018-04-27T07:39:19.859Z,3.70
2018-04-27T07:40:19.818Z,3.20
2018-04-27T07:41:19.826Z,3.40
2018-04-27T07:42:19.850Z,4.00
2018-04-27T07:43:19.920Z,3.30
2018-04-27T07:44:19.904Z,3.40
2018-04-27T07:45:19.967Z,3.60
2018-04-27T07:46:19.959Z,3.90
2018-04-27T07:47:19.989Z,4.00
2018-04-27T07:48:20.042Z,4.00
2018-04-27T07:49:20.076Z,3.60
2018-04-27T07:50:20.133Z,3.60
2018-04-27T07:51:20.086Z,3.30
2018-04-27T07:52:20.126Z,3.50
2018-04-27T07:53:20.142Z,3.40
2018-04-27T07:54:20.164Z,3.70
2018-04-27T07:55:20.228Z,3.50
2018-04-27T07:56:20.215Z,3.40
2018-04-27T07:57:20.254Z,3.40
2018-04-27T07:58:20.338Z,3.40
2018-04-27T07:59:20.343Z,3.20
2018-04-27T08:00:20.399Z,3.10
2018-04-27T08:01:20.353Z,3.20
2018-04-27T08:02:20.444Z,3.40
2018-04-27T08:03:20.462Z,3.30
2018-04-27T08:04:20.478Z,3.20
2018-04-27T08:05:20.466Z,3.20
2018-04-27T08:06:20.495Z,3.10
2018-04-27T08:07:20.579Z,3.20
2018-04-27T08:08:20.571Z,3.20
2018-04-27T08:09:20.581Z,3.40
2018-04-27T08:10:20.665Z,3.40
2018-04-27T08:11:20.721Z,3.40
2018-04-27T08:12:20.653Z,3.00
2018-04-27T08:13:20.788Z,3.30
2018-04-27T08:14:20.705Z,3.30
2018-04-27T08:15:20.731Z,3.00
2018-04-27T08:16:20.772Z,3.40
2018-04-27T08:17:20.786Z,3.30
2018-04-27T08:18:20.826Z,3.30
2018-04-27T08:19:20.915Z,3.50
2018-04-27T08:20:20.899Z,3.50
2018-04-27T08:21:20.890Z,3.00
2018-04-27T08:22:20.915Z,3.50
2018-04-27T08:23:20.940Z,3.20
2018-04-27T08:24:21.085Z,3.40
2018-04-27T08:25:21.004Z,3.60
2018-04-27T08:26:21.091Z,3.20
2018-04-27T08:27:21.076Z,3.00
2018-04-27T08:28:21.073Z,3.10
2018-04-27T08:29:21.102Z,3.10
2018-04-27T08:30:21.238Z,3.50
2018-04-27T08:31:21.174Z,3.20
2018-04-27T08:32:21.180Z,3.40
2018-04-27T08:33:21.190Z,3.10
2018-04-27T08:34:21.212Z,4.00
2018-04-27T08:35:21.264Z,3.10
2018-04-27T08:36:21.270Z,3.10
2018-04-27T08:37:21.290Z,3.20
2018-04-27T08:38:21.310Z,3.10
2018-04-27T08:39:21.331Z,3.10
2018-04-27T08:40:21.353Z,3.20
2018-04-27T08:41:21.388Z,3.00
2018-04-27T08:42:21.407Z,3.40
2018-04-27T08:43:21.430Z,3.30
2018-04-27T08:44:21.443Z,3.20
2018-04-27T08:45:21.471Z,3.10
2018-04-27T08:46:21.494Z,3.10
2018-04-27T08:47:21.515Z,3.50
2018-04-27T08:48:21.644Z,3.00
2018-04-27T08:49:21.594Z,3.30
2018-04-27T08:50:21.765Z,3.10
2018-04-27T08:51:21.607Z,3.20
2018-04-27T08:52:21.629Z,2.40
2018-04-27T08:53:21.670Z,2.70
2018-04-27T08:54:21.692Z,2.80
2018-04-27T08:55:21.755Z,2.90
2018-04-27T08:56:21.713Z,2.70
2018-04-27T08:57:21.745Z,3.00
2018-04-27T08:58:21.748Z,3.50
2018-04-27T08:59:21.790Z,3.20
2018-04-27T09:00:21.801Z,3.00
2018-04-27T09:01:21.829Z,2.70
2018-04-27T09:02:21.890Z,3.10
2018-04-27T09:03:22.104Z,2.40
2018-04-27T09:04:21.891Z,2.80
2018-04-27T09:05:21.912Z,3.20
2018-04-27T09:06:22.009Z,2.40
2018-04-27T09:07:21.947Z,2.90
2018-04-27T09:08:22.013Z,2.60
2018-04-27T09:09:22.010Z,2.80
2018-04-27T09:10:22.023Z,2.80
2018-04-27T09:11:22.093Z,2.60
2018-04-27T09:12:22.059Z,3.00
2018-04-27T09:13:22.108Z,2.90
2018-04-27T09:14:22.102Z,2.80
2018-04-27T09:15:22.158Z,2.50
2018-04-27T09:16:22.173Z,3.40
2018-04-27T09:17:22.167Z,3.10
2018-04-27T09:18:22.225Z,3.00
2018-04-27T09:19:22.211Z,3.30
2018-04-27T09:20:22.231Z,2.90
2018-04-27T09:21:22.262Z,2.80
2018-04-27T09:22:22.277Z,2.90
2018-04-27T09:23:22.526Z,3.30
2018-04-27T09:24:22.322Z,2.80
2018-04-27T09:25:22.484Z,3.00
2018-04-27T09:26:22.484Z,3.10
2018-04-27T09:27:22.467Z,3.20
2018-04-27T09:28:22.452Z,2.70
2018-04-27T09:29:22.475Z,2.80
2018-04-27T09:30:22.548Z,2.70
2018-04-27T09:31:22.480Z,2.80
2018-04-27T09:32:22.513Z,3.00
2018-04-27T09:33:22.618Z,2.70
2018-04-27T09:34:22.546Z,2.90
2018-04-27T09:35:22.560Z,2.50
2018-04-27T09:36:22.591Z,2.80
2018-04-27T09:37:22.608Z,2.60
2018-04-27T09:38:22.660Z,2.40
2018-04-27T09:39:22.720Z,3.20
2018-04-27T09:40:22.671Z,2.90
2018-04-27T09:41:22.703Z,2.90
2018-04-27T09:42:22.722Z,2.30
2018-04-27T09:43:22.748Z,2.50
2018-04-27T09:44:22.766Z,2.60
2018-04-27T09:45:22.791Z,3.20
2018-04-27T09:46:22.841Z,3.10
2018-04-27T09:47:22.843Z,2.80
2018-04-27T09:48:22.848Z,2.90
2018-04-27T09:49:22.939Z,3.10
2018-04-27T09:50:22.898Z,2.80
2018-04-27T09:51:22.913Z,2.80
2018-04-27T09:52:22.941Z,2.60
2018-04-27T09:53:22.959Z,3.00
2018-04-27T09:54:22.981Z,3.00
2018-04-27T09:55:23.000Z,2.20
2018-04-27T09:56:23.022Z,2.70
2018-04-27T09:57:23.091Z,2.60
2018-04-27T09:58:23.072Z,2.50
2018-04-27T09:59:23.118Z,2.40
2018-04-27T10:00:23.113Z,2.60
2018-04-27T10:01:23.146Z,2.30
2018-04-27T10:02:23.168Z,2.20
2018-04-27T10:03:23.186Z,2.00
2018-04-27T10:04:23.206Z,2.30
2018-04-27T10:05:23.220Z,2.60
2018-04-27T10:06:23.249Z,2.40
2018-04-27T10:07:23.384Z,2.70
2018-04-27T10:08:23.345Z,2.30
2018-04-27T10:09:23.309Z,2.40
2018-04-27T10:10:23.457Z,2.70
2018-04-27T10:11:23.356Z,2.30
2018-04-27T10:12:23.392Z,2.30
2018-04-27T10:13:23.412Z,2.50
2018-04-27T10:14:23.456Z,2.30
2018-04-27T10:15:23.452Z,2.40
2018-04-27T10:16:23.544Z,2.70
2018-04-27T10:17:23.515Z,2.70
2018-04-27T10:18:23.516Z,2.40
2018-04-27T10:19:23.537Z,2.20
2018-04-27T10:20:23.601Z,2.10
2018-04-27T10:21:23.633Z,2.00
2018-04-27T10:22:23.607Z,2.20
2018-04-27T10:23:23.665Z,2.20
2018-04-27T10:24:23.683Z,2.10
2018-04-27T10:25:23.667Z,2.10
2018-04-27T10:26:23.738Z,1.90
2018-04-27T10:27:23.725Z,1.70
2018-04-27T10:28:23.731Z,2.00
2018-04-27T10:29:23.798Z,2.30
2018-04-27T10:30:23.788Z,1.90
2018-04-27T10:31:23.917Z,2.00
2018-04-27T10:32:23.831Z,2.30
2018-04-27T10:33:23.849Z,2.50
2018-04-27T10:34:23.889Z,3.20
2018-04-27T10:35:23.890Z,32.30
2018-04-27T10:36:23.916Z,13.50
2018-04-27T10:37:23.945Z,2.60
2018-04-27T10:38:23.967Z,3.00
2018-04-27T10:39:23.997Z,2.80
2018-04-27T10:40:24.004Z,2.10
2018-04-27T10:41:24.061Z,2.60
2018-04-27T10:42:24.051Z,3.90
2018-04-27T10:43:24.079Z,2.60
2018-04-27T10:44:24.235Z,3.90
2018-04-27T10:45:24.119Z,2.40
2018-04-27T10:46:24.159Z,2.70
2018-04-27T10:47:24.158Z,2.40
2018-04-27T10:48:24.236Z,2.80
2018-04-27T10:49:24.199Z,2.70
2018-04-27T10:50:24.233Z,2.50
2018-04-27T10:51:24.301Z,2.60
2018-04-27T10:52:24.360Z,3.00
2018-04-27T10:53:24.338Z,4.40
2018-04-27T10:54:24.311Z,4.50
2018-04-27T10:55:24.422Z,3.30
2018-04-27T10:56:24.356Z,7.60
2018-04-27T10:57:24.504Z,3.30
2018-04-27T10:58:24.406Z,6.00
2018-04-27T10:59:24.424Z,4.80
2018-04-27T11:00:24.443Z,3.50
2018-04-27T11:01:24.574Z,4.30
2018-04-27T11:02:24.485Z,2.70
2018-04-27T11:03:24.641Z,2.90
2018-04-27T11:04:24.557Z,2.60
2018-04-27T11:05:24.594Z,2.50
2018-04-27T11:06:24.572Z,2.60
2018-04-27T11:07:24.602Z,2.40
2018-04-27T11:08:24.619Z,3.70
2018-04-27T11:09:24.672Z,2.90
2018-04-27T11:10:24.756Z,6.00
2018-04-27T11:11:24.724Z,2.80
2018-04-27T11:12:24.791Z,2.50
2018-04-27T11:13:24.741Z,5.40
2018-04-27T11:14:24.756Z,2.70
2018-04-27T11:15:24.778Z,3.60
2018-04-27T11:16:24.799Z,44.00
2018-04-27T11:17:24.829Z,7.70
2018-04-27T11:18:25.032Z,3.20
2018-04-27T11:19:24.868Z,2.70
2018-04-27T11:20:24.948Z,4.10
2018-04-27T11:21:24.968Z,2.60
2018-04-27T11:22:24.938Z,2.40
2018-04-27T11:23:24.986Z,2.50
2018-04-27T11:24:25.008Z,3.30
2018-04-27T11:25:24.996Z,2.40
2018-04-27T11:26:25.029Z,3.40
2018-04-27T11:27:25.041Z,3.70
2018-04-27T11:28:25.077Z,5.60
2018-04-27T11:29:25.107Z,2.60
2018-04-27T11:30:25.145Z,2.50
2018-04-27T11:31:25.132Z,2.50
2018-04-27T11:32:25.164Z,2.30
2018-04-27T11:33:25.180Z,2.10
2018-04-27T11:34:25.325Z,2.40
2018-04-27T11:35:25.235Z,2.40
2018-04-27T11:36:25.304Z,2.30
2018-04-27T11:37:25.263Z,2.50
2018-04-27T11:38:25.405Z,2.40
2018-04-27T11:39:25.461Z,2.30
2018-04-27T11:40:25.361Z,2.00
2018-04-27T11:41:25.365Z,1.80
2018-04-27T11:42:25.374Z,2.30
2018-04-27T11:43:25.397Z,2.10
2018-04-27T11:44:25.412Z,2.20
2018-04-27T11:45:25.446Z,2.00
2018-04-27T11:46:25.468Z,2.10
2018-04-27T11:47:25.608Z,1.80
2018-04-27T11:48:25.505Z,1.80
2018-04-27T11:49:25.522Z,2.00
2018-04-27T11:50:25.566Z,1.70
2018-04-27T11:51:25.568Z,1.90
2018-04-27T11:52:25.634Z,1.80
2018-04-27T11:53:25.638Z,1.70
2018-04-27T11:54:25.688Z,1.70
2018-04-27T11:55:25.657Z,1.90
2018-04-27T11:56:25.674Z,1.60
2018-04-27T11:57:25.698Z,1.50
2018-04-27T11:58:25.725Z,1.80
2018-04-27T11:59:25.745Z,2.00
2018-04-27T12:00:25.770Z,2.00
2018-04-27T12:01:25.895Z,2.00
2018-04-27T12:02:25.854Z,1.90
2018-04-27T12:03:25.852Z,1.70
2018-04-27T12:04:25.948Z,1.80
2018-04-27T12:05:25.923Z,2.00
2018-04-27T12:06:25.927Z,1.80
2018-04-27T12:07:26.021Z,1.60
2018-04-27T12:08:26.023Z,1.90
2018-04-27T12:09:26.109Z,1.70
2018-04-27T12:10:25.992Z,1.70
2018-04-27T12:11:26.027Z,1.90
2018-04-27T12:12:26.035Z,1.70
2018-04-27T12:13:26.065Z,1.70
2018-04-27T12:14:26.087Z,2.00
2018-04-27T12:15:26.104Z,1.60
2018-04-27T12:16:26.335Z,1.80
2018-04-27T12:17:26.171Z,1.70
2018-04-27T12:18:26.224Z,2.00
2018-04-27T12:19:26.297Z,1.80
2018-04-27T12:20:26.239Z,1.80
2018-04-27T12:21:26.240Z,1.80
2018-04-27T12:22:26.258Z,1.80
2018-04-27T12:23:26.281Z,1.80
2018-04-27T12:24:26.354Z,2.00
2018-04-27T12:25:26.353Z,2.20
2018-04-27T12:26:26.453Z,2.20
2018-04-27T12:27:26.399Z,1.90
2018-04-27T12:28:26.488Z,2.00
2018-04-27T12:29:26.427Z,1.90
2018-04-27T12:30:26.446Z,1.70
2018-04-27T12:31:26.521Z,1.60
2018-04-27T12:32:26.574Z,1.50
2018-04-27T12:33:26.639Z,1.70
2018-04-27T12:34:26.532Z,2.00
2018-04-27T12:35:26.646Z,1.90
2018-04-27T12:36:26.577Z,1.90
2018-04-27T12:37:26.599Z,2.10
2018-04-27T12:38:26.636Z,1.90
2018-04-27T12:39:26.646Z,1.80
2018-04-27T12:40:26.660Z,1.70
2018-04-27T12:41:26.688Z,1.60
2018-04-27T12:42:26.720Z,2.00
2018-04-27T12:43:26.747Z,1.80
2018-04-27T12:44:26.819Z,2.10
2018-04-27T12:45:26.775Z,1.80
2018-04-27T12:46:26.835Z,1.90
2018-04-27T12:47:26.818Z,1.90
2018-04-27T12:48:26.860Z,1.90
2018-04-27T12:49:26.865Z,2.20
2018-04-27T12:50:26.888Z,2.00
2018-04-27T12:51:26.974Z,1.90
2018-04-27T12:52:26.931Z,1.50
2018-04-27T12:53:26.953Z,2.00
2018-04-27T12:54:27.138Z,2.10
2018-04-27T12:55:27.053Z,2.40
2018-04-27T12:56:27.014Z,2.20
2018-04-27T12:57:27.074Z,2.20
2018-04-27T12:58:27.061Z,2.20
2018-04-27T12:59:27.079Z,2.10
2018-04-27T13:00:27.246Z,1.90
2018-04-27T13:01:27.131Z,2.10
2018-04-27T13:02:27.182Z,2.10
2018-04-27T13:03:27.189Z,1.90
2018-04-27T13:04:27.223Z,1.80
2018-04-27T13:05:27.218Z,2.00
2018-04-27T13:06:27.273Z,2.00
2018-04-27T13:07:27.264Z,1.70
2018-04-27T13:08:27.294Z,1.70
2018-04-27T13:09:27.382Z,1.80
2018-04-27T13:10:27.340Z,1.80
2018-04-27T13:11:27.385Z,2.00
2018-04-27T13:12:27.362Z,1.80
2018-04-27T13:13:27.432Z,2.40
2018-04-27T13:14:27.420Z,2.20